Time;durP1;ratioP1;P1;durP2;ratioP2;P2;SDS_P1;SDS_P2;PMS_P1;PMS_P2;Temp;Humidity;BMP_temperature;BMP_pressure;BME280_temperature;BME280_humidity;BME280_pressure;Samples;Min_cycle;Max_cycle;Signal;HPM_P1;HPM_P2
2024/01/01 00:00:15;;;;;;;69.50;33.65;;;;;;;;;;1038364;28;20049;-65
2024/01/01 00:01:06;;;;;;;59.60;31.42;;;;;;;;;;1037849;28;20053;-65
2024/01/01 00:01:50;;;;;;;60.10;30.88;;;;;;;;;;1037780;28;20135;-65
2024/01/01 00:02:21;;;;;;;61.30;30.83;;;;;;;;;;1038066;28;20099;-65
2024/01/01 00:02:51;;;;;;;62.28;32.28;;;;;;;;;;1038157;28;20530;-66
2024/01/01 00:03:22;;;;;;;62.75;33.38;;;;;;;;;;1038554;28;20061;-65
2024/01/01 00:03:52;;;;;;;63.88;31.13;;;;;;;;;;1037736;28;20140;-65
2024/01/01 00:04:24;;;;;;;64.90;33.95;;;;;;;;;;1037990;28;20053;-66
2024/01/01 00:04:56;;;;;;;61.05;32.17;;;;;;;;;;1037910;28;20693;-65
2024/01/01 00:05:27;;;;;;;63.65;33.08;;;;;;;;;;1038302;28;20054;-66
2024/01/01 00:05:58;;;;;;;64.28;33.15;;;;;;;;;;1037659;28;20061;-66
2024/01/01 00:06:29;;;;;;;70.70;32.75;;;;;;;;;;1038256;28;20045;-66
2024/01/01 00:06:59;;;;;;;65.10;32.90;;;;;;;;;;1037829;28;20063;-65
2024/01/01 00:07:30;;;;;;;60.28;31.85;;;;;;;;;;1037729;28;20049;-65
2024/01/01 00:08:00;;;;;;;67.05;32.42;;;;;;;;;;1038743;28;20152;-65
2024/01/01 00:08:31;;;;;;;62.22;32.75;;;;;;;;;;1037340;28;20472;-65
2024/01/01 00:09:01;;;;;;;70.38;34.22;;;;;;;;;;1037931;28;20045;-65
2024/01/01 00:09:32;;;;;;;60.58;33.70;;;;;;;;;;1037435;28;20132;-65
2024/01/01 00:10:04;;;;;;;61.63;32.47;;;;;;;;;;1037869;28;20917;-66
2024/01/01 00:10:35;;;;;;;57.78;31.38;;;;;;;;;;1037819;28;20029;-65
2024/01/01 00:11:05;;;;;;;60.00;32.03;;;;;;;;;;1038250;28;20046;-66
2024/01/01 00:11:37;;;;;;;55.80;30.98;;;;;;;;;;1037335;28;20618;-66
2024/01/01 00:12:08;;;;;;;62.53;34.15;;;;;;;;;;1038047;28;20073;-65
2024/01/01 00:12:39;;;;;;;58.50;31.40;;;;;;;;;;1036691;28;20072;-66
2024/01/01 00:13:10;;;;;;;61.38;31.38;;;;;;;;;;1041989;28;20068;-66
2024/01/01 00:13:40;;;;;;;59.08;30.88;;;;;;;;;;1041587;28;20099;-65
2024/01/01 00:14:11;;;;;;;65.10;32.55;;;;;;;;;;1041925;28;20067;-66
2024/01/01 00:14:42;;;;;;;56.78;31.10;;;;;;;;;;1041778;28;20399;-66
2024/01/01 00:15:13;;;;;;;60.63;32.63;;;;;;;;;;1037046;28;20049;-65
2024/01/01 00:15:43;;;;;;;66.53;34.03;;;;;;;;;;1037722;28;20049;-65
2024/01/01 00:16:14;;;;;;;61.75;32.50;;;;;;;;;;1038174;28;20056;-65
2024/01/01 00:16:45;;;;;;;59.05;31.40;;;;;;;;;;1037760;28;20404;-65
2024/01/01 00:17:16;;;;;;;62.40;31.85;;;;;;;;;;1038199;28;20466;-65
2024/01/01 00:17:46;;;;;;;66.13;32.25;;;;;;;;;;1037776;28;20073;-65
2024/01/01 00:18:17;;;;;;;58.25;31.25;;;;;;;;;;1038564;28;20080;-65
2024/01/01 00:18:48;;;;;;;55.17;30.85;;;;;;;;;;1038053;28;20124;-65
2024/01/01 00:19:19;;;;;;;54.25;29.35;;;;;;;;;;1038264;28;20465;-65
2024/01/01 00:19:49;;;;;;;54.50;30.40;;;;;;;;;;1037739;28;20053;-65
2024/01/01 00:20:20;;;;;;;56.92;29.77;;;;;;;;;;1038530;28;20045;-65
2024/01/01 00:20:51;;;;;;;58.20;31.38;;;;;;;;;;1037887;28;20056;-65
2024/01/01 00:21:21;;;;;;;59.47;31.42;;;;;;;;;;1038095;28;20045;-65
2024/01/01 00:21:52;;;;;;;57.05;30.42;;;;;;;;;;1037553;28;20053;-65
2024/01/01 00:22:22;;;;;;;57.40;30.63;;;;;;;;;;1038166;28;20128;-65
2024/01/01 00:22:53;;;;;;;59.65;31.05;;;;;;;;;;1036349;28;20700;-65
2024/01/01 00:23:23;;;;;;;57.42;31.95;;;;;;;;;;1038513;28;20046;-65
2024/01/01 00:23:54;;;;;;;65.35;31.20;;;;;;;;;;1037783;28;20132;-65
2024/01/01 00:24:24;;;;;;;66.47;32.05;;;;;;;;;;1038183;28;20048;-65
2024/01/01 00:24:55;;;;;;;60.20;31.17;;;;;;;;;;1037880;28;20401;-65
2024/01/01 00:25:25;;;;;;;64.80;31.27;;;;;;;;;;1038313;28;20367;-65
2024/01/01 00:25:56;;;;;;;68.80;33.00;;;;;;;;;;1037996;28;20046;-65
2024/01/01 00:26:26;;;;;;;92.90;37.85;;;;;;;;;;1038166;28;20045;-65
2024/01/01 00:26:57;;;;;;;89.75;38.17;;;;;;;;;;1037240;28;20449;-65
2024/01/01 00:27:27;;;;;;;87.03;35.75;;;;;;;;;;1037802;28;20045;-65
2024/01/01 00:27:58;;;;;;;82.43;37.95;;;;;;;;;;1037544;28;20053;-64
2024/01/01 00:28:29;;;;;;;75.93;36.75;;;;;;;;;;1038194;28;20046;-65
2024/01/01 00:28:59;;;;;;;85.40;35.75;;;;;;;;;;1037855;28;20061;-65
2024/01/01 00:29:30;;;;;;;85.28;36.00;;;;;;;;;;1037502;28;20045;-65
2024/01/01 00:30:01;;;;;;;66.28;33.85;;;;;;;;;;1038317;28;20049;-65
2024/01/01 00:30:33;;;;;;;80.13;36.33;;;;;;;;;;1037772;28;20434;-65
2024/01/01 00:31:03;;;;;;;75.03;34.50;;;;;;;;;;1037856;28;20339;-65
2024/01/01 00:31:34;;;;;;;73.30;33.38;;;;;;;;;;1036984;28;20632;-65
2024/01/01 00:32:05;;;;;;;84.88;35.42;;;;;;;;;;1038265;28;20041;-66
2024/01/01 00:32:36;;;;;;;74.20;34.13;;;;;;;;;;1037310;28;20100;-65
2024/01/01 00:33:06;;;;;;;75.93;33.70;;;;;;;;;;1038038;28;20453;-65
2024/01/01 00:33:37;;;;;;;64.95;33.08;;;;;;;;;;1038104;28;20090;-65
2024/01/01 00:34:07;;;;;;;69.55;33.33;;;;;;;;;;1038227;28;20053;-65
2024/01/01 00:34:38;;;;;;;73.60;33.85;;;;;;;;;;1037586;28;20119;-65
2024/01/01 00:35:08;;;;;;;64.65;30.77;;;;;;;;;;1038072;28;20053;-65
2024/01/01 00:35:38;;;;;;;67.40;33.08;;;;;;;;;;1037777;28;20099;-65
2024/01/01 00:36:09;;;;;;;61.15;31.73;;;;;;;;;;1038070;28;20049;-65
2024/01/01 00:36:40;;;;;;;61.70;31.42;;;;;;;;;;1037925;28;20046;-65
2024/01/01 00:37:10;;;;;;;65.35;32.08;;;;;;;;;;1037703;28;20414;-64
2024/01/01 00:37:41;;;;;;;65.70;31.55;;;;;;;;;;1037735;28;20075;-65
2024/01/01 00:38:11;;;;;;;60.33;31.00;;;;;;;;;;1038038;28;20061;-65
2024/01/01 00:38:42;;;;;;;64.55;32.60;;;;;;;;;;1038078;28;20505;-65
2024/01/01 00:39:12;;;;;;;64.03;30.60;;;;;;;;;;1038371;28;20073;-65
2024/01/01 00:39:43;;;;;;;60.45;31.10;;;;;;;;;;1037698;28;20049;-65
2024/01/01 00:40:14;;;;;;;61.92;29.95;;;;;;;;;;1038353;28;20045;-65
2024/01/01 00:40:45;;;;;;;61.65;33.05;;;;;;;;;;1037540;28;20469;-65
2024/01/01 00:41:16;;;;;;;65.07;30.90;;;;;;;;;;1038001;28;20482;-65
2024/01/01 00:41:46;;;;;;;59.63;31.20;;;;;;;;;;1037575;28;20460;-65
2024/01/01 00:42:17;;;;;;;52.53;29.33;;;;;;;;;;1038217;28;20517;-65
2024/01/01 00:42:47;;;;;;;59.30;30.38;;;;;;;;;;1037751;28;20053;-65
2024/01/01 00:43:18;;;;;;;54.53;29.15;;;;;;;;;;1038375;28;20053;-65
2024/01/01 00:43:49;;;;;;;54.05;29.95;;;;;;;;;;1037466;28;20061;-65
2024/01/01 00:44:20;;;;;;;55.83;31.23;;;;;;;;;;1038165;28;20437;-65
2024/01/01 00:44:50;;;;;;;59.70;31.63;;;;;;;;;;1037729;28;20504;-65
2024/01/01 00:45:21;;;;;;;51.53;29.80;;;;;;;;;;1037889;28;20049;-65
2024/01/01 00:45:51;;;;;;;55.78;29.52;;;;;;;;;;1037829;28;20128;-65
2024/01/01 00:46:22;;;;;;;56.78;30.30;;;;;;;;;;1038156;28;20587;-65
2024/01/01 00:46:52;;;;;;;56.95;29.73;;;;;;;;;;1037554;28;20084;-65
2024/01/01 00:47:23;;;;;;;59.40;31.70;;;;;;;;;;1038054;28;20802;-65
2024/01/01 00:47:53;;;;;;;57.47;29.30;;;;;;;;;;1038024;28;20119;-65
2024/01/01 00:48:24;;;;;;;56.15;31.17;;;;;;;;;;1038213;28;20042;-65
2024/01/01 00:48:54;;;;;;;51.88;30.27;;;;;;;;;;1037761;28;20152;-65
2024/01/01 00:49:25;;;;;;;56.70;30.67;;;;;;;;;;1038647;28;20473;-65
2024/01/01 00:49:57;;;;;;;57.42;29.73;;;;;;;;;;1037639;28;20049;-65
2024/01/01 00:50:27;;;;;;;51.20;30.42;;;;;;;;;;1038351;28;20050;-65
2024/01/01 00:50:58;;;;;;;52.15;29.63;;;;;;;;;;1037688;28;20053;-65
2024/01/01 00:51:28;;;;;;;55.47;31.05;;;;;;;;;;1037907;28;20053;-65
2024/01/01 00:51:59;;;;;;;62.22;30.52;;;;;;;;;;1037394;28;20057;-65
2024/01/01 00:52:29;;;;;;;56.95;30.40;;;;;;;;;;1037746;28;20095;-64
2024/01/01 00:53:00;;;;;;;60.85;30.05;;;;;;;;;;1038144;28;20046;-65
2024/01/01 00:53:31;;;;;;;63.90;31.73;;;;;;;;;;1037608;28;20136;-65
2024/01/01 00:54:02;;;;;;;57.78;31.25;;;;;;;;;;1037973;28;20044;-65
2024/01/01 00:54:32;;;;;;;56.17;30.85;;;;;;;;;;1037982;28;20075;-65
2024/01/01 00:55:05;;;;;;;58.92;31.15;;;;;;;;;;1038318;28;20073;-65
2024/01/01 00:55:35;;;;;;;57.60;30.05;;;;;;;;;;1037403;28;20045;-65
2024/01/01 00:56:07;;;;;;;55.28;30.25;;;;;;;;;;1038379;28;20049;-65
2024/01/01 00:56:37;;;;;;;53.25;29.27;;;;;;;;;;1037332;28;20038;-65
2024/01/01 00:57:07;;;;;;;63.65;31.13;;;;;;;;;;1038582;28;20040;-65
2024/01/01 00:57:38;;;;;;;61.72;31.42;;;;;;;;;;1037617;28;20073;-65
2024/01/01 00:58:08;;;;;;;56.35;30.52;;;;;;;;;;1038163;28;20045;-65
2024/01/01 00:58:40;;;;;;;57.67;30.38;;;;;;;;;;1037628;28;20052;-65
2024/01/01 00:59:10;;;;;;;66.35;31.08;;;;;;;;;;1038076;28;20123;-65
2024/01/01 00:59:41;;;;;;;63.90;32.00;;;;;;;;;;1037890;28;20119;-65
2024/01/01 01:00:12;;;;;;;58.83;30.23;;;;;;;;;;1037991;28;20050;-65
2024/01/01 01:00:43;;;;;;;61.40;29.95;;;;;;;;;;1037640;28;20048;-65
2024/01/01 01:01:13;;;;;;;62.28;32.33;;;;;;;;;;1037549;28;20172;-65
2024/01/01 01:01:43;;;;;;;57.00;31.80;;;;;;;;;;1037639;28;20452;-65
2024/01/01 01:02:14;;;;;;;56.65;31.20;;;;;;;;;;1037850;28;20118;-65
2024/01/01 01:02:45;;;;;;;58.63;31.60;;;;;;;;;;1038126;28;20064;-65
2024/01/01 01:03:16;;;;;;;58.35;31.40;;;;;;;;;;1037749;28;20057;-65
2024/01/01 01:03:46;;;;;;;62.17;31.80;;;;;;;;;;1037816;28;20041;-65
2024/01/01 01:04:17;;;;;;;64.18;32.55;;;;;;;;;;1038279;28;20037;-64
2024/01/01 01:04:47;;;;;;;59.45;30.83;;;;;;;;;;1037608;28;20148;-65
2024/01/01 01:05:19;;;;;;;64.53;32.15;;;;;;;;;;1038037;28;20053;-65
2024/01/01 01:05:50;;;;;;;61.03;32.90;;;;;;;;;;1037699;28;20061;-65
2024/01/01 01:06:20;;;;;;;69.63;33.45;;;;;;;;;;1038375;28;20046;-65
2024/01/01 01:06:52;;;;;;;68.07;34.38;;;;;;;;;;1037088;28;20521;-65
2024/01/01 01:07:22;;;;;;;63.78;31.77;;;;;;;;;;1038440;28;20050;-65
2024/01/01 01:07:53;;;;;;;60.33;33.22;;;;;;;;;;1037645;28;20073;-65
2024/01/01 01:08:23;;;;;;;67.40;32.97;;;;;;;;;;1038292;28;20087;-65
2024/01/01 01:08:54;;;;;;;59.45;32.00;;;;;;;;;;1037895;28;20100;-64
2024/01/01 01:09:24;;;;;;;57.58;31.63;;;;;;;;;;1039052;28;20057;-65
2024/01/01 01:09:56;;;;;;;64.43;33.00;;;;;;;;;;1038891;28;20071;-65
2024/01/01 01:10:26;;;;;;;61.72;31.75;;;;;;;;;;1039212;28;20049;-65
2024/01/01 01:10:57;;;;;;;63.50;32.88;;;;;;;;;;1038601;28;20045;-64
2024/01/01 01:11:27;;;;;;;62.42;31.65;;;;;;;;;;1038554;28;20489;-65
2024/01/01 01:11:58;;;;;;;64.88;33.17;;;;;;;;;;1038841;28;20103;-65
2024/01/01 01:12:28;;;;;;;61.25;31.17;;;;;;;;;;1038802;28;21380;-65
2024/01/01 01:12:59;;;;;;;59.20;31.88;;;;;;;;;;1038190;28;20605;-65
2024/01/01 01:13:30;;;;;;;61.45;31.25;;;;;;;;;;1039758;28;20041;-65
2024/01/01 01:14:00;;;;;;;57.65;30.45;;;;;;;;;;1041436;28;20058;-65
2024/01/01 01:14:31;;;;;;;56.47;30.25;;;;;;;;;;1038039;28;20080;-65
2024/01/01 01:15:01;;;;;;;58.30;30.80;;;;;;;;;;1039294;28;20069;-65
2024/01/01 01:15:34;;;;;;;61.47;31.05;;;;;;;;;;1037992;28;20053;-65
2024/01/01 01:16:04;;;;;;;58.45;30.63;;;;;;;;;;1039200;28;20148;-65
2024/01/01 01:16:35;;;;;;;61.92;30.38;;;;;;;;;;1038464;28;20045;-65
2024/01/01 01:17:06;;;;;;;62.13;32.00;;;;;;;;;;1038326;28;20076;-65
2024/01/01 01:17:36;;;;;;;60.92;32.30;;;;;;;;;;1038222;28;20156;-65
2024/01/01 01:18:07;;;;;;;64.25;32.33;;;;;;;;;;1038557;28;20123;-65
2024/01/01 01:18:37;;;;;;;64.90;33.20;;;;;;;;;;1038338;28;20224;-65
2024/01/01 01:19:08;;;;;;;64.60;30.92;;;;;;;;;;1038488;28;20051;-65
2024/01/01 01:19:38;;;;;;;58.78;30.73;;;;;;;;;;1038875;28;20124;-65
2024/01/01 01:20:09;;;;;;;59.83;30.60;;;;;;;;;;1038163;28;20053;-65
2024/01/01 01:20:40;;;;;;;65.05;32.60;;;;;;;;;;1037207;28;20042;-65
2024/01/01 01:21:13;;;;;;;53.92;30.35;;;;;;;;;;1038444;28;20164;-64
2024/01/01 01:21:43;;;;;;;56.00;29.50;;;;;;;;;;1038581;28;20084;-65
2024/01/01 01:22:13;;;;;;;53.58;30.80;;;;;;;;;;1038578;28;20049;-65
2024/01/01 01:22:44;;;;;;;59.13;30.25;;;;;;;;;;1038839;28;20049;-65
2024/01/01 01:23:15;;;;;;;57.45;31.17;;;;;;;;;;1037738;28;20211;-65
2024/01/01 01:23:45;;;;;;;58.83;30.48;;;;;;;;;;1038344;28;20052;-65
2024/01/01 01:24:16;;;;;;;59.10;31.02;;;;;;;;;;1038973;28;20061;-65
2024/01/01 01:24:46;;;;;;;55.25;29.77;;;;;;;;;;1039517;28;20050;-65
2024/01/01 01:25:18;;;;;;;54.53;31.33;;;;;;;;;;1039359;28;20057;-65
2024/01/01 01:25:49;;;;;;;61.28;30.95;;;;;;;;;;1038422;28;20132;-65
2024/01/01 01:26:19;;;;;;;57.47;31.25;;;;;;;;;;1039245;28;20075;-65
2024/01/01 01:26:50;;;;;;;53.17;30.13;;;;;;;;;;1037755;28;20061;-65
2024/01/01 01:27:20;;;;;;;58.67;30.10;;;;;;;;;;1039052;28;20045;-65
2024/01/01 01:27:51;;;;;;;59.45;30.60;;;;;;;;;;1038079;28;20107;-65
2024/01/01 01:28:23;;;;;;;55.30;30.77;;;;;;;;;;1039346;28;20052;-65
2024/01/01 01:28:54;;;;;;;55.78;29.25;;;;;;;;;;1036632;28;20064;-65
2024/01/01 01:29:24;;;;;;;52.20;29.88;;;;;;;;;;1038537;28;20052;-65
2024/01/01 01:29:55;;;;;;;60.58;30.58;;;;;;;;;;1038176;28;20046;-65
2024/01/01 01:30:25;;;;;;;56.47;29.40;;;;;;;;;;1039126;28;20075;-65
2024/01/01 01:30:56;;;;;;;57.22;30.13;;;;;;;;;;1038708;28;20054;-65
2024/01/01 01:31:26;;;;;;;59.78;29.60;;;;;;;;;;1038391;28;20128;-65
2024/01/01 01:31:56;;;;;;;62.17;32.03;;;;;;;;;;1038940;28;20045;-65
2024/01/01 01:32:27;;;;;;;67.47;30.30;;;;;;;;;;1038487;28;20414;-65
2024/01/01 01:32:58;;;;;;;49.55;29.15;;;;;;;;;;1038704;28;20049;-65
2024/01/01 01:33:28;;;;;;;57.80;29.77;;;;;;;;;;1038191;28;20594;-65
2024/01/01 01:33:59;;;;;;;55.70;29.80;;;;;;;;;;1038115;28;20058;-65
2024/01/01 01:34:29;;;;;;;54.83;29.40;;;;;;;;;;1038202;28;20061;-65
2024/01/01 01:35:00;;;;;;;61.63;30.45;;;;;;;;;;1038976;28;20656;-65
2024/01/01 01:35:30;;;;;;;61.92;30.08;;;;;;;;;;1038578;28;20073;-65
2024/01/01 01:36:01;;;;;;;52.45;28.55;;;;;;;;;;1037837;28;20716;-66
2024/01/01 01:36:32;;;;;;;52.88;29.65;;;;;;;;;;1038510;28;20041;-65
2024/01/01 01:37:03;;;;;;;53.42;30.55;;;;;;;;;;1038624;28;20080;-65
2024/01/01 01:37:33;;;;;;;52.75;28.10;;;;;;;;;;1038429;28;20175;-65
2024/01/01 01:38:04;;;;;;;57.85;31.42;;;;;;;;;;1038677;28;20639;-65
2024/01/01 01:38:35;;;;;;;50.78;31.45;;;;;;;;;;1038648;28;20532;-65
2024/01/01 01:39:06;;;;;;;58.65;30.10;;;;;;;;;;1038539;28;20123;-65
2024/01/01 01:39:37;;;;;;;56.08;30.15;;;;;;;;;;1038334;28;20088;-65
2024/01/01 01:40:08;;;;;;;57.92;30.90;;;;;;;;;;1038362;28;20084;-65
2024/01/01 01:40:38;;;;;;;54.83;29.23;;;;;;;;;;1038752;28;20398;-65
2024/01/01 01:41:08;;;;;;;54.05;30.42;;;;;;;;;;1038915;28;20756;-65
2024/01/01 01:41:39;;;;;;;50.80;28.40;;;;;;;;;;1037998;28;20050;-65
2024/01/01 01:42:09;;;;;;;54.63;29.55;;;;;;;;;;1038796;28;20100;-65
2024/01/01 01:42:45;;;;;;;55.92;29.52;;;;;;;;;;1038410;28;20049;-65
2024/01/01 01:43:23;;;;;;;55.67;28.83;;;;;;;;;;1038774;28;20100;-65
2024/01/01 01:43:54;;;;;;;56.97;29.65;;;;;;;;;;1038738;28;20067;-65
2024/01/01 01:44:25;;;;;;;57.30;30.52;;;;;;;;;;1038825;28;20076;-65
2024/01/01 01:44:56;;;;;;;53.17;30.65;;;;;;;;;;1038236;28;20056;-65
2024/01/01 01:45:26;;;;;;;54.90;31.15;;;;;;;;;;1039342;28;20056;-65
2024/01/01 01:45:58;;;;;;;62.13;30.38;;;;;;;;;;1037950;28;20073;-65
2024/01/01 01:46:29;;;;;;;60.47;30.70;;;;;;;;;;1038613;28;20053;-65
2024/01/01 01:47:01;;;;;;;64.00;32.30;;;;;;;;;;1038126;28;20049;-65
2024/01/01 01:47:31;;;;;;;66.00;32.65;;;;;;;;;;1038661;28;20051;-65
2024/01/01 01:48:02;;;;;;;62.45;31.92;;;;;;;;;;1038210;28;20072;-66
2024/01/01 01:48:33;;;;;;;62.85;31.60;;;;;;;;;;1038014;28;20053;-65
2024/01/01 01:49:04;;;;;;;70.55;33.20;;;;;;;;;;1037485;28;20164;-65
2024/01/01 01:49:34;;;;;;;60.90;32.67;;;;;;;;;;1037688;28;20752;-65
2024/01/01 01:50:06;;;;;;;59.58;32.35;;;;;;;;;;1035974;28;20050;-65
2024/01/01 01:50:37;;;;;;;70.50;33.28;;;;;;;;;;1037110;28;20045;-65
2024/01/01 01:51:08;;;;;;;66.97;34.45;;;;;;;;;;1038173;28;20053;-66
2024/01/01 01:51:38;;;;;;;64.20;32.42;;;;;;;;;;1037420;28;20471;-65
2024/01/01 01:52:10;;;;;;;69.53;32.03;;;;;;;;;;1038400;28;20049;-65
2024/01/01 01:52:42;;;;;;;61.85;32.38;;;;;;;;;;1038187;28;20049;-66
2024/01/01 01:53:14;;;;;;;79.70;35.83;;;;;;;;;;1037485;28;21015;-65
2024/01/01 01:53:45;;;;;;;65.07;32.78;;;;;;;;;;1037557;28;20045;-65
2024/01/01 01:54:17;;;;;;;66.05;33.38;;;;;;;;;;1037736;28;20091;-66
2024/01/01 01:54:49;;;;;;;72.63;34.15;;;;;;;;;;1037989;28;20790;-64
2024/01/01 01:55:22;;;;;;;63.60;33.97;;;;;;;;;;1038175;28;20879;-65
2024/01/01 01:55:56;;;;;;;64.70;32.65;;;;;;;;;;1037667;28;20060;-65
2024/01/01 01:56:27;;;;;;;58.53;30.60;;;;;;;;;;1038460;28;20067;-64
2024/01/01 01:56:58;;;;;;;62.38;32.70;;;;;;;;;;1037251;28;20063;-65
2024/01/01 01:57:29;;;;;;;64.63;31.20;;;;;;;;;;1038467;28;20057;-64
2024/01/01 01:58:00;;;;;;;63.72;30.67;;;;;;;;;;1037434;28;20164;-65
2024/01/01 01:58:31;;;;;;;57.35;29.88;;;;;;;;;;1036393;28;20505;-66
2024/01/01 01:59:03;;;;;;;54.08;29.88;;;;;;;;;;1037515;28;20045;-65
2024/01/01 01:59:34;;;;;;;56.70;30.02;;;;;;;;;;1036195;28;20080;-67
2024/01/01 02:00:05;;;;;;;56.60;30.98;;;;;;;;;;1036739;28;20072;-66
2024/01/01 02:00:38;;;;;;;59.17;29.77;;;;;;;;;;689234;28;10000784;-65
2024/01/01 02:01:10;;;;;;;59.20;29.23;;;;;;;;;;1038069;28;20065;-64
2024/01/01 02:01:41;;;;;;;56.00;28.58;;;;;;;;;;1037200;28;20057;-64
2024/01/01 02:02:11;;;;;;;57.10;29.67;;;;;;;;;;1037671;28;20058;-63
2024/01/01 02:02:43;;;;;;;62.90;30.92;;;;;;;;;;1036624;28;20057;-64
2024/01/01 02:03:14;;;;;;;56.78;29.67;;;;;;;;;;1038096;28;20060;-64
2024/01/01 02:03:45;;;;;;;62.97;29.08;;;;;;;;;;1036963;28;20124;-65
2024/01/01 02:04:16;;;;;;;54.78;29.65;;;;;;;;;;1039032;28;20095;-64
2024/01/01 02:04:47;;;;;;;56.70;30.08;;;;;;;;;;1037804;28;20103;-67
2024/01/01 02:05:18;;;;;;;61.08;29.13;;;;;;;;;;1037355;28;20139;-67
2024/01/01 02:05:49;;;;;;;53.88;28.27;;;;;;;;;;1037065;28;20053;-67
2024/01/01 02:06:19;;;;;;;51.10;28.48;;;;;;;;;;1037288;28;20041;-64
2024/01/01 02:06:50;;;;;;;52.58;27.63;;;;;;;;;;1037496;28;20056;-65
2024/01/01 02:07:21;;;;;;;52.42;28.98;;;;;;;;;;1037190;28;20081;-64
2024/01/01 02:07:51;;;;;;;56.28;29.73;;;;;;;;;;1036712;28;20084;-64
2024/01/01 02:08:22;;;;;;;57.22;29.15;;;;;;;;;;1037732;28;20056;-64
2024/01/01 02:08:53;;;;;;;53.92;29.42;;;;;;;;;;1036630;28;20779;-64
2024/01/01 02:09:23;;;;;;;54.38;28.92;;;;;;;;;;1038107;28;20517;-64
2024/01/01 02:09:54;;;;;;;52.53;28.42;;;;;;;;;;1036337;28;20598;-67
2024/01/01 02:10:24;;;;;;;52.20;28.52;;;;;;;;;;1036243;28;20045;-64
2024/01/01 02:10:55;;;;;;;57.35;29.05;;;;;;;;;;1036825;28;20520;-64
2024/01/01 02:11:25;;;;;;;52.13;28.02;;;;;;;;;;1037591;28;20081;-64
2024/01/01 02:11:56;;;;;;;52.22;28.83;;;;;;;;;;1037745;28;20064;-64
2024/01/01 02:12:27;;;;;;;52.72;28.88;;;;;;;;;;1037652;28;20069;-64
2024/01/01 02:12:59;;;;;;;51.05;27.25;;;;;;;;;;1037836;28;20057;-65
2024/01/01 02:13:30;;;;;;;53.67;29.17;;;;;;;;;;1037797;28;20046;-66
2024/01/01 02:14:11;;;;;;;47.67;26.88;;;;;;;;;;1037883;28;20064;-66
2024/01/01 02:14:42;;;;;;;47.55;26.98;;;;;;;;;;1037990;28;20053;-67
2024/01/01 02:15:12;;;;;;;58.17;27.73;;;;;;;;;;1038235;28;20152;-64
2024/01/01 02:15:42;;;;;;;50.78;27.73;;;;;;;;;;1038305;28;20106;-65
2024/01/01 02:16:13;;;;;;;52.88;29.15;;;;;;;;;;1037915;28;20584;-64
2024/01/01 02:16:48;;;;;;;54.38;29.10;;;;;;;;;;1037682;28;20049;-64
2024/01/01 02:17:18;;;;;;;52.67;28.45;;;;;;;;;;1036707;28;20072;-64
2024/01/01 02:17:49;;;;;;;49.97;29.20;;;;;;;;;;1038040;28;20524;-63
2024/01/01 02:18:20;;;;;;;58.40;29.23;;;;;;;;;;1038221;28;20041;-64
2024/01/01 02:18:50;;;;;;;53.95;28.20;;;;;;;;;;1038115;28;20509;-64
2024/01/01 02:19:24;;;;;;;53.60;29.83;;;;;;;;;;1038288;28;20045;-67
2024/01/01 02:19:55;;;;;;;54.50;27.50;;;;;;;;;;1037129;28;20679;-64
2024/01/01 02:20:25;;;;;;;50.13;28.38;;;;;;;;;;1037516;28;20472;-66
2024/01/01 02:20:56;;;;;;;54.90;28.98;;;;;;;;;;1037800;28;20128;-67
2024/01/01 02:21:27;;;;;;;50.08;26.15;;;;;;;;;;1038288;28;20053;-66
2024/01/01 02:21:58;;;;;;;53.08;28.13;;;;;;;;;;1037083;28;20041;-66
2024/01/01 02:22:38;;;;;;;56.85;28.52;;;;;;;;;;1038945;28;20103;-67
2024/01/01 02:23:09;;;;;;;48.85;27.63;;;;;;;;;;1037263;28;20090;-67
2024/01/01 02:23:39;;;;;;;52.78;28.08;;;;;;;;;;1038418;28;20107;-66
2024/01/01 02:24:10;;;;;;;55.30;27.08;;;;;;;;;;1037533;28;20670;-67
2024/01/01 02:24:41;;;;;;;55.72;28.55;;;;;;;;;;1037897;28;20113;-67
2024/01/01 02:25:12;;;;;;;55.08;27.42;;;;;;;;;;1037997;28;20582;-66
2024/01/01 02:25:43;;;;;;;49.90;26.00;;;;;;;;;;1037876;28;20049;-66
2024/01/01 02:26:15;;;;;;;49.92;26.67;;;;;;;;;;1036780;28;20100;-65
2024/01/01 02:26:47;;;;;;;51.28;27.55;;;;;;;;;;1037590;28;20557;-67
2024/01/01 02:27:18;;;;;;;50.20;26.10;;;;;;;;;;1038975;28;20055;-66
2024/01/01 02:27:49;;;;;;;50.20;26.27;;;;;;;;;;1037970;28;20128;-66
2024/01/01 02:28:19;;;;;;;50.97;27.88;;;;;;;;;;1038369;28;20060;-66
2024/01/01 02:28:50;;;;;;;48.13;25.58;;;;;;;;;;1036247;28;20049;-66
2024/01/01 02:29:21;;;;;;;48.53;26.75;;;;;;;;;;1038439;28;20049;-64
2024/01/01 02:29:51;;;;;;;50.13;27.70;;;;;;;;;;1037436;28;20060;-66
2024/01/01 02:30:22;;;;;;;51.42;27.38;;;;;;;;;;1036872;28;20046;-66
2024/01/01 02:30:52;;;;;;;47.40;26.38;;;;;;;;;;1037275;28;20053;-66
2024/01/01 02:31:23;;;;;;;47.40;26.13;;;;;;;;;;1037842;28;20142;-66
2024/01/01 02:31:53;;;;;;;50.40;26.63;;;;;;;;;;1037705;28;20573;-66
2024/01/01 02:32:24;;;;;;;55.90;28.17;;;;;;;;;;1037859;28;20401;-66
2024/01/01 02:32:54;;;;;;;51.20;28.00;;;;;;;;;;1037676;28;20054;-67
2024/01/01 02:33:25;;;;;;;52.67;28.70;;;;;;;;;;1037738;28;20057;-66
2024/01/01 02:33:55;;;;;;;54.03;27.02;;;;;;;;;;1037930;28;20072;-65
2024/01/01 02:34:27;;;;;;;49.83;27.13;;;;;;;;;;1038221;28;20086;-65
2024/01/01 02:34:58;;;;;;;52.20;27.27;;;;;;;;;;1037785;28;20053;-66
2024/01/01 02:35:28;;;;;;;48.80;26.33;;;;;;;;;;1038590;28;20061;-67
2024/01/01 02:35:59;;;;;;;47.40;26.52;;;;;;;;;;1037873;28;20087;-65
2024/01/01 02:36:36;;;;;;;45.40;26.65;;;;;;;;;;1037604;28;20405;-66
2024/01/01 02:37:06;;;;;;;51.63;26.00;;;;;;;;;;1036899;28;20486;-67
2024/01/01 02:37:39;;;;;;;43.05;25.23;;;;;;;;;;1037760;28;20620;-66
2024/01/01 02:38:09;;;;;;;48.10;24.98;;;;;;;;;;1037845;28;20053;-65
2024/01/01 02:38:42;;;;;;;51.63;26.55;;;;;;;;;;1037697;28;20060;-67
2024/01/01 02:39:13;;;;;;;48.75;26.60;;;;;;;;;;1037575;28;20092;-66
2024/01/01 02:39:43;;;;;;;50.13;26.83;;;;;;;;;;1038170;28;20077;-66
2024/01/01 02:40:14;;;;;;;50.67;26.92;;;;;;;;;;1038275;28;20069;-66
2024/01/01 02:40:45;;;;;;;51.33;26.55;;;;;;;;;;1038155;28;20049;-67
2024/01/01 02:41:15;;;;;;;50.78;26.50;;;;;;;;;;1037704;28;20045;-67
2024/01/01 02:41:45;;;;;;;51.20;25.77;;;;;;;;;;1037929;28;20056;-66
2024/01/01 02:42:16;;;;;;;47.75;25.08;;;;;;;;;;1038592;28;20190;-66
2024/01/01 02:42:46;;;;;;;50.10;26.92;;;;;;;;;;1037046;28;20476;-66
2024/01/01 02:43:17;;;;;;;50.08;26.70;;;;;;;;;;1038826;28;20493;-66
2024/01/01 02:43:48;;;;;;;52.03;26.73;;;;;;;;;;1036945;28;20086;-66
2024/01/01 02:44:18;;;;;;;53.15;27.08;;;;;;;;;;1037628;28;20057;-66
2024/01/01 02:44:49;;;;;;;51.03;27.50;;;;;;;;;;1038154;28;20087;-66
2024/01/01 02:45:22;;;;;;;48.47;26.42;;;;;;;;;;1038193;28;20131;-66
2024/01/01 02:45:52;;;;;;;48.80;27.52;;;;;;;;;;1037882;28;20057;-66
2024/01/01 02:46:23;;;;;;;50.78;26.65;;;;;;;;;;1038462;28;20088;-66
2024/01/01 02:46:54;;;;;;;51.03;27.60;;;;;;;;;;1036837;28;20057;-66
2024/01/01 02:47:24;;;;;;;53.75;26.73;;;;;;;;;;1038120;28;20069;-67
2024/01/01 02:47:55;;;;;;;48.03;25.38;;;;;;;;;;1038142;28;20053;-66
2024/01/01 02:48:26;;;;;;;50.85;27.73;;;;;;;;;;1038409;28;20886;-66
2024/01/01 02:48:56;;;;;;;47.13;26.90;;;;;;;;;;1037739;28;20049;-66
2024/01/01 02:49:27;;;;;;;54.17;27.02;;;;;;;;;;1037431;28;20049;-67
2024/01/01 02:49:57;;;;;;;47.35;25.60;;;;;;;;;;1038027;28;20054;-66
2024/01/01 02:50:29;;;;;;;54.28;26.23;;;;;;;;;;1038534;28;20038;-66
2024/01/01 02:50:59;;;;;;;48.92;25.10;;;;;;;;;;1037790;28;20170;-66
2024/01/01 02:51:30;;;;;;;46.58;25.80;;;;;;;;;;1037636;28;20049;-66
2024/01/01 02:52:01;;;;;;;45.88;24.85;;;;;;;;;;1037855;28;20049;-66
2024/01/01 02:52:31;;;;;;;47.25;24.52;;;;;;;;;;1037491;28;20220;-67
2024/01/01 02:53:02;;;;;;;44.42;25.33;;;;;;;;;;1037042;28;20054;-66
2024/01/01 02:53:33;;;;;;;50.47;26.15;;;;;;;;;;1037195;28;20055;-66
2024/01/01 02:54:03;;;;;;;51.45;26.60;;;;;;;;;;1038434;28;20053;-66
2024/01/01 02:54:34;;;;;;;53.45;25.90;;;;;;;;;;1036397;28;20053;-67
2024/01/01 02:55:04;;;;;;;47.70;25.17;;;;;;;;;;1038008;28;20041;-67
2024/01/01 02:55:35;;;;;;;49.03;26.38;;;;;;;;;;1037611;28;20048;-66
2024/01/01 02:56:15;;;;;;;50.55;27.23;;;;;;;;;;1037282;28;20057;-66
2024/01/01 02:56:47;;;;;;;47.80;25.83;;;;;;;;;;1037536;28;20057;-67
2024/01/01 02:57:17;;;;;;;48.95;26.75;;;;;;;;;;1038344;28;20041;-66
2024/01/01 02:57:48;;;;;;;50.95;26.58;;;;;;;;;;1038043;28;20045;-66
2024/01/01 02:58:18;;;;;;;51.20;26.90;;;;;;;;;;1038819;28;20049;-66
2024/01/01 02:58:49;;;;;;;50.65;26.23;;;;;;;;;;1037814;28;20097;-66
2024/01/01 02:59:20;;;;;;;50.35;27.17;;;;;;;;;;1038437;28;20037;-67
2024/01/01 02:59:51;;;;;;;47.78;26.52;;;;;;;;;;1037317;28;20053;-66
2024/01/01 03:00:21;;;;;;;51.10;26.98;;;;;;;;;;1037498;28;20103;-66